sensor_id;sensor_type;location;lat;lon;timestamp;P1;durP1;ratioP1;P2;durP2;ratioP2
3149;SDS011;32503;47.748;8.960;2023-07-08T00:01:07;7.50;;;4.03;;
3149;SDS011;32503;47.748;8.960;2023-07-08T00:03:38;4.70;;;4.33;;
3149;SDS011;32503;47.748;8.960;2023-07-08T00:06:07;3.40;;;3.10;;
3149;SDS011;32503;47.748;8.960;2023-07-08T00:08:39;4.00;;;3.70;;
3149;SDS011;32503;47.748;8.960;2023-07-08T00:11:09;4.23;;;3.90;;
3149;SDS011;32503;47.748;8.960;2023-07-08T00:13:37;4.67;;;4.20;;
3149;SDS011;32503;47.748;8.960;2023-07-08T00:16:07;5.83;;;3.90;;
3149;SDS011;32503;47.748;8.960;2023-07-08T00:18:36;4.73;;;4.20;;
3149;SDS011;32503;47.748;8.960;2023-07-08T00:21:04;7.73;;;4.23;;
3149;SDS011;32503;47.748;8.960;2023-07-08T00:23:39;4.70;;;4.30;;
3149;SDS011;32503;47.748;8.960;2023-07-08T00:26:10;4.40;;;4.00;;
3149;SDS011;32503;47.748;8.960;2023-07-08T00:28:43;4.80;;;4.33;;
3149;SDS011;32503;47.748;8.960;2023-07-08T00:31:10;6.83;;;4.43;;
3149;SDS011;32503;47.748;8.960;2023-07-08T00:33:37;5.63;;;5.13;;
3149;SDS011;32503;47.748;8.960;2023-07-08T00:36:07;5.20;;;4.80;;
3149;SDS011;32503;47.748;8.960;2023-07-08T00:38:37;4.33;;;4.03;;
3149;SDS011;32503;47.748;8.960;2023-07-08T00:41:11;4.70;;;3.70;;
3149;SDS011;32503;47.748;8.960;2023-07-08T00:43:43;4.80;;;4.30;;
3149;SDS011;32503;47.748;8.960;2023-07-08T00:46:17;6.67;;;5.30;;
3149;SDS011;32503;47.748;8.960;2023-07-08T00:48:59;4.60;;;4.30;;
3149;SDS011;32503;47.748;8.960;2023-07-08T00:51:39;6.40;;;5.03;;
3149;SDS011;32503;47.748;8.960;2023-07-08T00:54:09;4.97;;;4.47;;
3149;SDS011;32503;47.748;8.960;2023-07-08T00:56:39;7.17;;;5.17;;
3149;SDS011;32503;47.748;8.960;2023-07-08T00:59:11;6.57;;;4.50;;
3149;SDS011;32503;47.748;8.960;2023-07-08T01:01:47;6.23;;;4.23;;
3149;SDS011;32503;47.748;8.960;2023-07-08T01:04:17;7.20;;;3.67;;
3149;SDS011;32503;47.748;8.960;2023-07-08T01:06:52;5.00;;;4.43;;
3149;SDS011;32503;47.748;8.960;2023-07-08T01:09:24;5.43;;;4.93;;
3149;SDS011;32503;47.748;8.960;2023-07-08T01:11:55;5.43;;;4.70;;
3149;SDS011;32503;47.748;8.960;2023-07-08T01:14:27;4.63;;;4.00;;
3149;SDS011;32503;47.748;8.960;2023-07-08T01:16:57;6.00;;;5.50;;
3149;SDS011;32503;47.748;8.960;2023-07-08T01:19:25;5.40;;;4.43;;
3149;SDS011;32503;47.748;8.960;2023-07-08T01:21:59;6.00;;;4.70;;
3149;SDS011;32503;47.748;8.960;2023-07-08T01:24:28;5.13;;;4.17;;
3149;SDS011;32503;47.748;8.960;2023-07-08T01:26:59;5.57;;;5.07;;
3149;SDS011;32503;47.748;8.960;2023-07-08T01:29:29;4.73;;;4.00;;
3149;SDS011;32503;47.748;8.960;2023-07-08T01:31:56;4.67;;;4.27;;
3149;SDS011;32503;47.748;8.960;2023-07-08T01:34:27;5.63;;;5.07;;
3149;SDS011;32503;47.748;8.960;2023-07-08T01:36:55;4.70;;;4.30;;
3149;SDS011;32503;47.748;8.960;2023-07-08T01:39:27;7.43;;;5.53;;
3149;SDS011;32503;47.748;8.960;2023-07-08T01:41:58;4.70;;;4.30;;
3149;SDS011;32503;47.748;8.960;2023-07-08T01:44:27;4.93;;;4.53;;
3149;SDS011;32503;47.748;8.960;2023-07-08T01:46:56;4.70;;;4.20;;
3149;SDS011;32503;47.748;8.960;2023-07-08T01:49:28;4.80;;;4.00;;
3149;SDS011;32503;47.748;8.960;2023-07-08T01:51:57;5.57;;;5.07;;
3149;SDS011;32503;47.748;8.960;2023-07-08T01:54:26;5.80;;;4.67;;
3149;SDS011;32503;47.748;8.960;2023-07-08T01:56:54;4.83;;;4.30;;
3149;SDS011;32503;47.748;8.960;2023-07-08T01:59:21;4.10;;;3.80;;
3149;SDS011;32503;47.748;8.960;2023-07-08T02:01:48;5.03;;;4.33;;
3149;SDS011;32503;47.748;8.960;2023-07-08T02:04:19;8.30;;;4.03;;
3149;SDS011;32503;47.748;8.960;2023-07-08T02:06:50;4.00;;;3.70;;
3149;SDS011;32503;47.748;8.960;2023-07-08T02:09:18;3.50;;;3.20;;
3149;SDS011;32503;47.748;8.960;2023-07-08T02:11:46;3.73;;;3.43;;
3149;SDS011;32503;47.748;8.960;2023-07-08T02:14:14;4.10;;;3.70;;
3149;SDS011;32503;47.748;8.960;2023-07-08T02:16:41;4.03;;;3.70;;
3149;SDS011;32503;47.748;8.960;2023-07-08T02:19:08;4.17;;;3.87;;
3149;SDS011;32503;47.748;8.960;2023-07-08T02:21:36;3.60;;;3.40;;
3149;SDS011;32503;47.748;8.960;2023-07-08T02:24:04;4.00;;;3.80;;
3149;SDS011;32503;47.748;8.960;2023-07-08T02:26:32;4.00;;;3.70;;
3149;SDS011;32503;47.748;8.960;2023-07-08T02:29:01;4.13;;;3.83;;
3149;SDS011;32503;47.748;8.960;2023-07-08T02:31:28;3.57;;;3.27;;
3149;SDS011;32503;47.748;8.960;2023-07-08T02:33:55;5.40;;;3.90;;
3149;SDS011;32503;47.748;8.960;2023-07-08T02:36:22;3.80;;;3.60;;
3149;SDS011;32503;47.748;8.960;2023-07-08T02:38:49;4.03;;;3.73;;
3149;SDS011;32503;47.748;8.960;2023-07-08T02:41:17;4.00;;;3.60;;
3149;SDS011;32503;47.748;8.960;2023-07-08T02:43:44;3.70;;;3.40;;
3149;SDS011;32503;47.748;8.960;2023-07-08T02:46:12;4.23;;;3.90;;
3149;SDS011;32503;47.748;8.960;2023-07-08T02:48:39;3.70;;;3.40;;
3149;SDS011;32503;47.748;8.960;2023-07-08T02:51:06;4.13;;;3.83;;
3149;SDS011;32503;47.748;8.960;2023-07-08T02:53:34;5.20;;;3.80;;
3149;SDS011;32503;47.748;8.960;2023-07-08T02:56:02;5.17;;;3.77;;
3149;SDS011;32503;47.748;8.960;2023-07-08T02:58:29;3.53;;;3.30;;
3149;SDS011;32503;47.748;8.960;2023-07-08T03:00:57;3.13;;;2.83;;
3149;SDS011;32503;47.748;8.960;2023-07-08T03:03:27;3.67;;;3.37;;
3149;SDS011;32503;47.748;8.960;2023-07-08T03:05:55;2.50;;;2.30;;
3149;SDS011;32503;47.748;8.960;2023-07-08T03:08:23;2.40;;;2.00;;
3149;SDS011;32503;47.748;8.960;2023-07-08T03:10:54;3.17;;;2.97;;
3149;SDS011;32503;47.748;8.960;2023-07-08T03:13:23;2.20;;;2.00;;
3149;SDS011;32503;47.748;8.960;2023-07-08T03:15:50;3.20;;;3.00;;
3149;SDS011;32503;47.748;8.960;2023-07-08T03:18:19;3.10;;;2.90;;
3149;SDS011;32503;47.748;8.960;2023-07-08T03:20:50;2.93;;;2.60;;
3149;SDS011;32503;47.748;8.960;2023-07-08T03:23:17;3.03;;;2.83;;
3149;SDS011;32503;47.748;8.960;2023-07-08T03:25:44;3.67;;;3.47;;
3149;SDS011;32503;47.748;8.960;2023-07-08T03:28:11;5.03;;;3.57;;
3149;SDS011;32503;47.748;8.960;2023-07-08T03:30:40;3.67;;;3.47;;
3149;SDS011;32503;47.748;8.960;2023-07-08T03:33:08;3.30;;;3.00;;
3149;SDS011;32503;47.748;8.960;2023-07-08T03:35:36;2.80;;;2.60;;
3149;SDS011;32503;47.748;8.960;2023-07-08T03:38:06;6.30;;;2.97;;
3149;SDS011;32503;47.748;8.960;2023-07-08T03:40:33;3.47;;;3.17;;
3149;SDS011;32503;47.748;8.960;2023-07-08T03:43:00;2.77;;;2.57;;
3149;SDS011;32503;47.748;8.960;2023-07-08T03:45:27;3.70;;;3.13;;
3149;SDS011;32503;47.748;8.960;2023-07-08T03:47:54;2.80;;;2.40;;
3149;SDS011;32503;47.748;8.960;2023-07-08T03:50:22;3.23;;;2.93;;
3149;SDS011;32503;47.748;8.960;2023-07-08T03:52:52;6.13;;;3.20;;
3149;SDS011;32503;47.748;8.960;2023-07-08T03:55:23;3.20;;;2.90;;
3149;SDS011;32503;47.748;8.960;2023-07-08T03:57:50;2.17;;;2.07;;
3149;SDS011;32503;47.748;8.960;2023-07-08T04:00:17;3.07;;;2.50;;
3149;SDS011;32503;47.748;8.960;2023-07-08T04:02:44;3.07;;;2.20;;
3149;SDS011;32503;47.748;8.960;2023-07-08T04:05:13;1.80;;;1.70;;
3149;SDS011;32503;47.748;8.960;2023-07-08T04:07:41;2.10;;;1.93;;
3149;SDS011;32503;47.748;8.960;2023-07-08T04:10:08;2.13;;;2.03;;
3149;SDS011;32503;47.748;8.960;2023-07-08T04:12:37;2.20;;;2.10;;
3149;SDS011;32503;47.748;8.960;2023-07-08T04:15:06;2.30;;;2.10;;
3149;SDS011;32503;47.748;8.960;2023-07-08T04:17:35;3.23;;;1.80;;
3149;SDS011;32503;47.748;8.960;2023-07-08T04:20:07;5.00;;;1.87;;
3149;SDS011;32503;47.748;8.960;2023-07-08T04:22:41;2.70;;;2.27;;
3149;SDS011;32503;47.748;8.960;2023-07-08T04:25:08;1.70;;;1.60;;
3149;SDS011;32503;47.748;8.960;2023-07-08T04:27:38;2.07;;;1.90;;
3149;SDS011;32503;47.748;8.960;2023-07-08T04:30:06;2.03;;;1.93;;
3149;SDS011;32503;47.748;8.960;2023-07-08T04:32:41;6.43;;;2.70;;
3149;SDS011;32503;47.748;8.960;2023-07-08T04:35:08;2.60;;;2.40;;
3149;SDS011;32503;47.748;8.960;2023-07-08T04:37:35;2.97;;;2.10;;
3149;SDS011;32503;47.748;8.960;2023-07-08T04:40:03;1.90;;;1.70;;
3149;SDS011;32503;47.748;8.960;2023-07-08T04:42:36;2.93;;;1.60;;
3149;SDS011;32503;47.748;8.960;2023-07-08T04:45:05;2.20;;;2.10;;
3149;SDS011;32503;47.748;8.960;2023-07-08T04:47:33;2.40;;;2.20;;
3149;SDS011;32503;47.748;8.960;2023-07-08T04:50:01;2.60;;;2.40;;
3149;SDS011;32503;47.748;8.960;2023-07-08T04:52:28;1.70;;;1.60;;
3149;SDS011;32503;47.748;8.960;2023-07-08T04:54:55;2.87;;;1.97;;
3149;SDS011;32503;47.748;8.960;2023-07-08T04:57:22;2.60;;;2.40;;
3149;SDS011;32503;47.748;8.960;2023-07-08T04:59:50;4.00;;;2.20;;
3149;SDS011;32503;47.748;8.960;2023-07-08T05:02:18;2.30;;;2.20;;
3149;SDS011;32503;47.748;8.960;2023-07-08T05:04:46;2.07;;;1.97;;
3149;SDS011;32503;47.748;8.960;2023-07-08T05:07:13;2.20;;;2.00;;
3149;SDS011;32503;47.748;8.960;2023-07-08T05:09:40;1.90;;;1.80;;
3149;SDS011;32503;47.748;8.960;2023-07-08T05:12:07;2.33;;;2.23;;
3149;SDS011;32503;47.748;8.960;2023-07-08T05:14:35;2.67;;;2.47;;
3149;SDS011;32503;47.748;8.960;2023-07-08T05:17:02;3.07;;;2.50;;
3149;SDS011;32503;47.748;8.960;2023-07-08T05:19:31;2.57;;;2.37;;
3149;SDS011;32503;47.748;8.960;2023-07-08T05:21:58;2.50;;;2.20;;
3149;SDS011;32503;47.748;8.960;2023-07-08T05:24:25;2.33;;;2.13;;
3149;SDS011;32503;47.748;8.960;2023-07-08T05:26:53;2.60;;;2.40;;
3149;SDS011;32503;47.748;8.960;2023-07-08T05:29:20;4.43;;;2.93;;
3149;SDS011;32503;47.748;8.960;2023-07-08T05:31:47;2.17;;;2.07;;
3149;SDS011;32503;47.748;8.960;2023-07-08T05:34:14;2.20;;;1.90;;
3149;SDS011;32503;47.748;8.960;2023-07-08T05:36:43;2.80;;;2.60;;
3149;SDS011;32503;47.748;8.960;2023-07-08T05:39:10;1.93;;;1.83;;
3149;SDS011;32503;47.748;8.960;2023-07-08T05:41:37;2.23;;;2.03;;
3149;SDS011;32503;47.748;8.960;2023-07-08T05:44:04;2.27;;;2.07;;
3149;SDS011;32503;47.748;8.960;2023-07-08T05:46:32;2.80;;;2.60;;
3149;SDS011;32503;47.748;8.960;2023-07-08T05:48:59;3.03;;;2.13;;
3149;SDS011;32503;47.748;8.960;2023-07-08T05:51:26;2.80;;;2.60;;
3149;SDS011;32503;47.748;8.960;2023-07-08T05:53:54;2.10;;;2.00;;
3149;SDS011;32503;47.748;8.960;2023-07-08T05:56:21;2.10;;;2.00;;
3149;SDS011;32503;47.748;8.960;2023-07-08T05:58:48;1.90;;;1.80;;
3149;SDS011;32503;47.748;8.960;2023-07-08T06:01:15;2.20;;;2.10;;
3149;SDS011;32503;47.748;8.960;2023-07-08T06:03:42;2.20;;;2.00;;
3149;SDS011;32503;47.748;8.960;2023-07-08T06:06:09;2.87;;;2.50;;
3149;SDS011;32503;47.748;8.960;2023-07-08T06:08:36;2.03;;;1.93;;
3149;SDS011;32503;47.748;8.960;2023-07-08T06:11:05;1.53;;;1.43;;
3149;SDS011;32503;47.748;8.960;2023-07-08T06:13:32;3.80;;;1.87;;
3149;SDS011;32503;47.748;8.960;2023-07-08T06:15:59;1.40;;;1.30;;
3149;SDS011;32503;47.748;8.960;2023-07-08T06:18:26;2.17;;;1.90;;
3149;SDS011;32503;47.748;8.960;2023-07-08T06:20:54;3.00;;;1.73;;
3149;SDS011;32503;47.748;8.960;2023-07-08T06:23:23;1.70;;;1.60;;
3149;SDS011;32503;47.748;8.960;2023-07-08T06:25:50;2.90;;;1.87;;
3149;SDS011;32503;47.748;8.960;2023-07-08T06:28:19;2.40;;;1.40;;
3149;SDS011;32503;47.748;8.960;2023-07-08T06:30:46;1.43;;;1.33;;
3149;SDS011;32503;47.748;8.960;2023-07-08T06:33:14;1.57;;;1.47;;
3149;SDS011;32503;47.748;8.960;2023-07-08T06:35:41;2.10;;;1.90;;
3149;SDS011;32503;47.748;8.960;2023-07-08T06:38:10;1.43;;;1.33;;
3149;SDS011;32503;47.748;8.960;2023-07-08T06:40:37;2.07;;;1.97;;
3149;SDS011;32503;47.748;8.960;2023-07-08T06:43:04;1.40;;;1.30;;
3149;SDS011;32503;47.748;8.960;2023-07-08T06:45:32;1.70;;;1.60;;
3149;SDS011;32503;47.748;8.960;2023-07-08T06:47:59;1.00;;;0.90;;
3149;SDS011;32503;47.748;8.960;2023-07-08T06:50:27;1.30;;;1.00;;
3149;SDS011;32503;47.748;8.960;2023-07-08T06:52:54;1.57;;;1.47;;
3149;SDS011;32503;47.748;8.960;2023-07-08T06:55:21;2.67;;;1.73;;
3149;SDS011;32503;47.748;8.960;2023-07-08T06:57:48;1.73;;;1.60;;
3149;SDS011;32503;47.748;8.960;2023-07-08T07:00:15;1.80;;;1.33;;
3149;SDS011;32503;47.748;8.960;2023-07-08T07:02:44;1.97;;;1.70;;
3149;SDS011;32503;47.748;8.960;2023-07-08T07:05:11;1.40;;;1.30;;
3149;SDS011;32503;47.748;8.960;2023-07-08T07:07:38;1.73;;;1.40;;
3149;SDS011;32503;47.748;8.960;2023-07-08T07:10:05;1.33;;;1.20;;
3149;SDS011;32503;47.748;8.960;2023-07-08T07:12:33;1.93;;;1.53;;
3149;SDS011;32503;47.748;8.960;2023-07-08T07:15:00;1.53;;;1.43;;
3149;SDS011;32503;47.748;8.960;2023-07-08T07:17:28;1.60;;;1.50;;
3149;SDS011;32503;47.748;8.960;2023-07-08T07:19:57;1.30;;;1.10;;
3149;SDS011;32503;47.748;8.960;2023-07-08T07:22:24;1.27;;;1.17;;
3149;SDS011;32503;47.748;8.960;2023-07-08T07:24:51;2.40;;;1.90;;
3149;SDS011;32503;47.748;8.960;2023-07-08T07:27:18;2.07;;;1.30;;
3149;SDS011;32503;47.748;8.960;2023-07-08T07:29:46;1.20;;;1.10;;
3149;SDS011;32503;47.748;8.960;2023-07-08T07:32:15;2.33;;;1.93;;
3149;SDS011;32503;47.748;8.960;2023-07-08T07:34:45;2.53;;;1.20;;
3149;SDS011;32503;47.748;8.960;2023-07-08T07:37:15;1.40;;;1.23;;
3149;SDS011;32503;47.748;8.960;2023-07-08T07:39:43;1.43;;;1.33;;
3149;SDS011;32503;47.748;8.960;2023-07-08T07:42:11;1.30;;;1.20;;
3149;SDS011;32503;47.748;8.960;2023-07-08T07:44:39;1.83;;;1.33;;
3149;SDS011;32503;47.748;8.960;2023-07-08T07:47:07;1.80;;;1.67;;
3149;SDS011;32503;47.748;8.960;2023-07-08T07:49:35;1.10;;;1.00;;
3149;SDS011;32503;47.748;8.960;2023-07-08T07:52:03;0.90;;;0.90;;
3149;SDS011;32503;47.748;8.960;2023-07-08T07:54:33;2.37;;;1.60;;
3149;SDS011;32503;47.748;8.960;2023-07-08T07:57:00;1.20;;;1.10;;
3149;SDS011;32503;47.748;8.960;2023-07-08T07:59:27;1.17;;;1.07;;
3149;SDS011;32503;47.748;8.960;2023-07-08T08:01:54;2.00;;;1.90;;
3149;SDS011;32503;47.748;8.960;2023-07-08T08:04:21;1.20;;;1.10;;
3149;SDS011;32503;47.748;8.960;2023-07-08T08:06:48;1.23;;;1.13;;
3149;SDS011;32503;47.748;8.960;2023-07-08T08:09:15;1.50;;;1.40;;
3149;SDS011;32503;47.748;8.960;2023-07-08T08:11:44;1.30;;;1.20;;
3149;SDS011;32503;47.748;8.960;2023-07-08T08:14:11;1.20;;;1.03;;
3149;SDS011;32503;47.748;8.960;2023-07-08T08:16:39;1.43;;;1.10;;
3149;SDS011;32503;47.748;8.960;2023-07-08T08:19:06;1.20;;;1.10;;
3149;SDS011;32503;47.748;8.960;2023-07-08T08:21:33;1.33;;;1.23;;
3149;SDS011;32503;47.748;8.960;2023-07-08T08:24:00;1.23;;;1.13;;
3149;SDS011;32503;47.748;8.960;2023-07-08T08:26:27;1.10;;;1.00;;
3149;SDS011;32503;47.748;8.960;2023-07-08T08:28:56;1.20;;;1.10;;
3149;SDS011;32503;47.748;8.960;2023-07-08T08:31:23;1.50;;;1.40;;
3149;SDS011;32503;47.748;8.960;2023-07-08T08:33:51;1.50;;;1.40;;
3149;SDS011;32503;47.748;8.960;2023-07-08T08:36:18;1.40;;;1.30;;
3149;SDS011;32503;47.748;8.960;2023-07-08T08:38:45;1.23;;;1.13;;
3149;SDS011;32503;47.748;8.960;2023-07-08T08:41:14;1.50;;;1.40;;
3149;SDS011;32503;47.748;8.960;2023-07-08T08:43:45;2.33;;;1.47;;
3149;SDS011;32503;47.748;8.960;2023-07-08T08:46:19;2.00;;;1.90;;
3149;SDS011;32503;47.748;8.960;2023-07-08T08:48:56;1.37;;;1.27;;
3149;SDS011;32503;47.748;8.960;2023-07-08T08:51:31;2.50;;;1.33;;
3149;SDS011;32503;47.748;8.960;2023-07-08T08:53:59;1.23;;;1.13;;
3149;SDS011;32503;47.748;8.960;2023-07-08T08:56:27;1.63;;;1.53;;
3149;SDS011;32503;47.748;8.960;2023-07-08T08:58:59;1.60;;;1.40;;
3149;SDS011;32503;47.748;8.960;2023-07-08T09:01:34;1.83;;;1.70;;
3149;SDS011;32503;47.748;8.960;2023-07-08T09:04:02;2.00;;;1.90;;
3149;SDS011;32503;47.748;8.960;2023-07-08T09:06:34;1.87;;;1.77;;
3149;SDS011;32503;47.748;8.960;2023-07-08T09:09:06;2.60;;;1.00;;
3149;SDS011;32503;47.748;8.960;2023-07-08T09:11:42;2.47;;;2.10;;
3149;SDS011;32503;47.748;8.960;2023-07-08T09:14:18;6.70;;;1.40;;
3149;SDS011;32503;47.748;8.960;2023-07-08T09:16:56;3.00;;;1.63;;
3149;SDS011;32503;47.748;8.960;2023-07-08T09:19:40;1.87;;;1.77;;
3149;SDS011;32503;47.748;8.960;2023-07-08T09:22:12;1.40;;;1.30;;
3149;SDS011;32503;47.748;8.960;2023-07-08T09:24:47;2.10;;;2.00;;
3149;SDS011;32503;47.748;8.960;2023-07-08T09:27:19;1.50;;;1.40;;
3149;SDS011;32503;47.748;8.960;2023-07-08T09:29:47;1.30;;;1.20;;
3149;SDS011;32503;47.748;8.960;2023-07-08T09:32:17;1.63;;;1.53;;
3149;SDS011;32503;47.748;8.960;2023-07-08T09:34:47;1.80;;;1.70;;
3149;SDS011;32503;47.748;8.960;2023-07-08T09:37:20;1.47;;;1.37;;
3149;SDS011;32503;47.748;8.960;2023-07-08T09:39:51;1.23;;;1.13;;
3149;SDS011;32503;47.748;8.960;2023-07-08T09:42:19;1.53;;;1.40;;
3149;SDS011;32503;47.748;8.960;2023-07-08T09:44:53;3.33;;;1.40;;
3149;SDS011;32503;47.748;8.960;2023-07-08T09:47:26;1.87;;;1.30;;
3149;SDS011;32503;47.748;8.960;2023-07-08T09:49:58;1.40;;;1.30;;
3149;SDS011;32503;47.748;8.960;2023-07-08T09:52:25;1.40;;;1.30;;
3149;SDS011;32503;47.748;8.960;2023-07-08T09:54:56;1.47;;;1.37;;
3149;SDS011;32503;47.748;8.960;2023-07-08T09:57:25;1.80;;;1.70;;
3149;SDS011;32503;47.748;8.960;2023-07-08T09:59:56;1.87;;;1.77;;
3149;SDS011;32503;47.748;8.960;2023-07-08T10:02:30;1.77;;;1.67;;
3149;SDS011;32503;47.748;8.960;2023-07-08T10:05:09;1.93;;;1.83;;
3149;SDS011;32503;47.748;8.960;2023-07-08T10:07:43;1.53;;;1.43;;
3149;SDS011;32503;47.748;8.960;2023-07-08T10:10:15;2.10;;;1.70;;
3149;SDS011;32503;47.748;8.960;2023-07-08T10:12:52;1.77;;;1.67;;
3149;SDS011;32503;47.748;8.960;2023-07-08T10:15:33;1.63;;;1.53;;
3149;SDS011;32503;47.748;8.960;2023-07-08T10:18:09;1.83;;;1.73;;
3149;SDS011;32503;47.748;8.960;2023-07-08T10:20:45;1.70;;;1.60;;
3149;SDS011;32503;47.748;8.960;2023-07-08T10:23:22;2.13;;;2.03;;
3149;SDS011;32503;47.748;8.960;2023-07-08T10:26:04;2.63;;;1.83;;
3149;SDS011;32503;47.748;8.960;2023-07-08T10:28:43;1.97;;;1.87;;
3149;SDS011;32503;47.748;8.960;2023-07-08T10:31:18;3.00;;;2.67;;
3149;SDS011;32503;47.748;8.960;2023-07-08T10:33:57;2.90;;;2.70;;
3149;SDS011;32503;47.748;8.960;2023-07-08T10:36:42;2.43;;;2.30;;
3149;SDS011;32503;47.748;8.960;2023-07-08T10:42:25;2.37;;;2.27;;
3149;SDS011;32503;47.748;8.960;2023-07-08T10:45:15;2.97;;;2.60;;
3149;SDS011;32503;47.748;8.960;2023-07-08T10:47:51;2.00;;;1.80;;
3149;SDS011;32503;47.748;8.960;2023-07-08T10:50:39;2.07;;;1.87;;
3149;SDS011;32503;47.748;8.960;2023-07-08T10:53:26;2.23;;;2.03;;
3149;SDS011;32503;47.748;8.960;2023-07-08T10:56:12;2.53;;;2.33;;
3149;SDS011;32503;47.748;8.960;2023-07-08T11:01:43;2.37;;;2.20;;
3149;SDS011;32503;47.748;8.960;2023-07-08T11:04:31;2.00;;;1.90;;
3149;SDS011;32503;47.748;8.960;2023-07-08T11:07:26;2.90;;;2.70;;
3149;SDS011;32503;47.748;8.960;2023-07-08T11:10:01;2.70;;;2.50;;
3149;SDS011;32503;47.748;8.960;2023-07-08T11:12:38;3.73;;;2.07;;
3149;SDS011;32503;47.748;8.960;2023-07-08T11:15:13;1.80;;;1.70;;
3149;SDS011;32503;47.748;8.960;2023-07-08T11:17:51;2.37;;;2.17;;
3149;SDS011;32503;47.748;8.960;2023-07-08T11:20:26;2.07;;;1.97;;
3149;SDS011;32503;47.748;8.960;2023-07-08T11:23:04;2.47;;;1.87;;
3149;SDS011;32503;47.748;8.960;2023-07-08T11:25:39;2.40;;;2.30;;
3149;SDS011;32503;47.748;8.960;2023-07-08T11:28:11;2.33;;;2.13;;
3149;SDS011;32503;47.748;8.960;2023-07-08T11:30:45;2.00;;;1.87;;
3149;SDS011;32503;47.748;8.960;2023-07-08T11:33:16;3.10;;;2.47;;
3149;SDS011;32503;47.748;8.960;2023-07-08T11:35:48;3.30;;;2.40;;
3149;SDS011;32503;47.748;8.960;2023-07-08T11:38:22;1.80;;;1.70;;
3149;SDS011;32503;47.748;8.960;2023-07-08T11:40:49;1.87;;;1.77;;
3149;SDS011;32503;47.748;8.960;2023-07-08T11:43:20;1.70;;;1.60;;
3149;SDS011;32503;47.748;8.960;2023-07-08T11:45:50;2.90;;;1.80;;
3149;SDS011;32503;47.748;8.960;2023-07-08T11:48:21;2.53;;;2.43;;
3149;SDS011;32503;47.748;8.960;2023-07-08T11:50:53;2.17;;;2.07;;
3149;SDS011;32503;47.748;8.960;2023-07-08T11:53:34;4.33;;;2.60;;
3149;SDS011;32503;47.748;8.960;2023-07-08T11:56:06;1.93;;;1.83;;
3149;SDS011;32503;47.748;8.960;2023-07-08T11:58:51;2.23;;;2.13;;
3149;SDS011;32503;47.748;8.960;2023-07-08T12:01:40;2.53;;;2.43;;
3149;SDS011;32503;47.748;8.960;2023-07-08T12:04:24;2.00;;;1.90;;
3149;SDS011;32503;47.748;8.960;2023-07-08T12:07:06;3.50;;;3.10;;
3149;SDS011;32503;47.748;8.960;2023-07-08T12:09:46;1.80;;;1.70;;
3149;SDS011;32503;47.748;8.960;2023-07-08T12:12:24;1.93;;;1.83;;
3149;SDS011;32503;47.748;8.960;2023-07-08T12:14:58;2.20;;;1.80;;
3149;SDS011;32503;47.748;8.960;2023-07-08T12:17:37;1.80;;;1.70;;
3149;SDS011;32503;47.748;8.960;2023-07-08T12:20:06;1.67;;;1.57;;
3149;SDS011;32503;47.748;8.960;2023-07-08T12:22:44;2.17;;;2.07;;
3149;SDS011;32503;47.748;8.960;2023-07-08T12:25:14;2.33;;;2.13;;
3149;SDS011;32503;47.748;8.960;2023-07-08T12:27:45;2.23;;;2.13;;
3149;SDS011;32503;47.748;8.960;2023-07-08T12:30:13;1.97;;;1.87;;
3149;SDS011;32503;47.748;8.960;2023-07-08T12:32:42;2.23;;;2.13;;
3149;SDS011;32503;47.748;8.960;2023-07-08T12:35:14;2.67;;;2.50;;
3149;SDS011;32503;47.748;8.960;2023-07-08T12:37:50;2.20;;;2.10;;
3149;SDS011;32503;47.748;8.960;2023-07-08T12:40:22;1.70;;;1.60;;
3149;SDS011;32503;47.748;8.960;2023-07-08T12:42:49;1.93;;;1.83;;
3149;SDS011;32503;47.748;8.960;2023-07-08T12:45:19;2.10;;;2.00;;
3149;SDS011;32503;47.748;8.960;2023-07-08T12:47:47;2.13;;;1.90;;
3149;SDS011;32503;47.748;8.960;2023-07-08T12:50:15;2.53;;;2.40;;
3149;SDS011;32503;47.748;8.960;2023-07-08T12:52:42;2.53;;;2.43;;
3149;SDS011;32503;47.748;8.960;2023-07-08T12:55:11;2.80;;;2.70;;
3149;SDS011;32503;47.748;8.960;2023-07-08T12:57:40;3.50;;;2.70;;
3149;SDS011;32503;47.748;8.960;2023-07-08T13:00:15;2.30;;;2.20;;
3149;SDS011;32503;47.748;8.960;2023-07-08T13:02:48;2.23;;;2.10;;
3149;SDS011;32503;47.748;8.960;2023-07-08T13:05:23;2.13;;;2.03;;
3149;SDS011;32503;47.748;8.960;2023-07-08T13:07:51;2.60;;;2.40;;
3149;SDS011;32503;47.748;8.960;2023-07-08T13:10:19;2.70;;;2.60;;
3149;SDS011;32503;47.748;8.960;2023-07-08T13:12:52;2.30;;;2.10;;
3149;SDS011;32503;47.748;8.960;2023-07-08T13:15:25;2.73;;;2.63;;
3149;SDS011;32503;47.748;8.960;2023-07-08T13:17:59;2.50;;;2.40;;
3149;SDS011;32503;47.748;8.960;2023-07-08T13:20:27;2.50;;;2.40;;
3149;SDS011;32503;47.748;8.960;2023-07-08T13:22:57;2.33;;;2.23;;
3149;SDS011;32503;47.748;8.960;2023-07-08T13:25:27;2.53;;;2.43;;
3149;SDS011;32503;47.748;8.960;2023-07-08T13:27:58;3.43;;;3.13;;
3149;SDS011;32503;47.748;8.960;2023-07-08T13:30:28;2.67;;;2.50;;
3149;SDS011;32503;47.748;8.960;2023-07-08T13:32:57;1.80;;;1.70;;
3149;SDS011;32503;47.748;8.960;2023-07-08T13:35:27;2.50;;;2.30;;
3149;SDS011;32503;47.748;8.960;2023-07-08T13:38:01;2.50;;;2.40;;
3149;SDS011;32503;47.748;8.960;2023-07-08T13:40:29;3.23;;;2.10;;
3149;SDS011;32503;47.748;8.960;2023-07-08T13:42:58;2.77;;;2.43;;
3149;SDS011;32503;47.748;8.960;2023-07-08T13:45:27;2.27;;;2.07;;
3149;SDS011;32503;47.748;8.960;2023-07-08T13:47:58;2.70;;;2.60;;
3149;SDS011;32503;47.748;8.960;2023-07-08T13:50:39;2.70;;;2.50;;
3149;SDS011;32503;47.748;8.960;2023-07-08T13:53:15;2.47;;;2.37;;
3149;SDS011;32503;47.748;8.960;2023-07-08T13:55:45;2.50;;;2.10;;
3149;SDS011;32503;47.748;8.960;2023-07-08T13:58:16;3.47;;;2.73;;
3149;SDS011;32503;47.748;8.960;2023-07-08T14:00:43;2.10;;;2.00;;
3149;SDS011;32503;47.748;8.960;2023-07-08T14:03:11;2.20;;;2.10;;
3149;SDS011;32503;47.748;8.960;2023-07-08T14:05:43;2.50;;;2.30;;
3149;SDS011;32503;47.748;8.960;2023-07-08T14:08:12;2.67;;;2.57;;
3149;SDS011;32503;47.748;8.960;2023-07-08T14:10:43;2.40;;;2.30;;
3149;SDS011;32503;47.748;8.960;2023-07-08T14:13:10;2.80;;;2.70;;
3149;SDS011;32503;47.748;8.960;2023-07-08T14:15:39;1.97;;;1.87;;
3149;SDS011;32503;47.748;8.960;2023-07-08T14:18:07;2.23;;;2.13;;
3149;SDS011;32503;47.748;8.960;2023-07-08T14:20:36;2.77;;;2.50;;
3149;SDS011;32503;47.748;8.960;2023-07-08T14:23:03;2.80;;;2.70;;
3149;SDS011;32503;47.748;8.960;2023-07-08T14:25:30;2.27;;;2.17;;
3149;SDS011;32503;47.748;8.960;2023-07-08T14:27:57;2.70;;;2.60;;
3149;SDS011;32503;47.748;8.960;2023-07-08T14:30:24;2.30;;;2.20;;
3149;SDS011;32503;47.748;8.960;2023-07-08T14:32:53;2.47;;;2.37;;
3149;SDS011;32503;47.748;8.960;2023-07-08T14:35:21;2.50;;;2.40;;
3149;SDS011;32503;47.748;8.960;2023-07-08T14:37:51;3.07;;;2.87;;
3149;SDS011;32503;47.748;8.960;2023-07-08T14:40:23;2.40;;;2.30;;
3149;SDS011;32503;47.748;8.960;2023-07-08T14:42:55;2.73;;;2.53;;
3149;SDS011;32503;47.748;8.960;2023-07-08T14:45:26;3.07;;;2.97;;
3149;SDS011;32503;47.748;8.960;2023-07-08T14:47:57;2.53;;;2.43;;
3149;SDS011;32503;47.748;8.960;2023-07-08T14:50:24;2.83;;;2.73;;
3149;SDS011;32503;47.748;8.960;2023-07-08T14:52:54;2.50;;;2.30;;
3149;SDS011;32503;47.748;8.960;2023-07-08T14:55:22;3.00;;;2.80;;
3149;SDS011;32503;47.748;8.960;2023-07-08T14:57:49;3.23;;;3.13;;
3149;SDS011;32503;47.748;8.960;2023-07-08T15:00:17;2.80;;;2.70;;
3149;SDS011;32503;47.748;8.960;2023-07-08T15:02:46;2.60;;;2.50;;
3149;SDS011;32503;47.748;8.960;2023-07-08T15:05:17;3.63;;;3.40;;
3149;SDS011;32503;47.748;8.960;2023-07-08T15:07:49;2.60;;;2.50;;
3149;SDS011;32503;47.748;8.960;2023-07-08T15:10:17;2.77;;;2.67;;
3149;SDS011;32503;47.748;8.960;2023-07-08T15:12:44;2.97;;;2.67;;
3149;SDS011;32503;47.748;8.960;2023-07-08T15:15:14;2.30;;;2.10;;
3149;SDS011;32503;47.748;8.960;2023-07-08T15:17:44;2.77;;;2.57;;
3149;SDS011;32503;47.748;8.960;2023-07-08T15:20:11;2.60;;;2.50;;
3149;SDS011;32503;47.748;8.960;2023-07-08T15:22:43;2.67;;;2.57;;
3149;SDS011;32503;47.748;8.960;2023-07-08T15:25:11;2.33;;;1.93;;